Time;durP1;ratioP1;P1;durP2;ratioP2;P2;SDS_P1;SDS_P2;PMS_P1;PMS_P2;Temp;Humidity;BMP_temperature;BMP_pressure;BME280_temperature;BME280_humidity;BME280_pressure;Samples;Min_cycle;Max_cycle;Signal;HPM_P1;HPM_P2
2024/03/06 00:01:33;;;;;;;3.05;2.83;;;15.80;60.20;;;;;;5113332;28;20204;-62
2024/03/06 00:03:59;;;;;;;2.72;2.53;;;15.80;60.20;;;;;;5112501;28;20256;-62
2024/03/06 00:06:25;;;;;;;2.58;2.38;;;15.80;60.20;;;;;;5112894;28;20268;-63
2024/03/06 00:08:51;;;;;;;2.60;2.40;;;15.80;60.20;;;;;;5113381;28;20808;-64
2024/03/06 00:11:17;;;;;;;2.53;2.33;;;15.80;60.20;;;;;;5112325;28;20180;-63
2024/03/06 00:13:43;;;;;;;2.90;2.70;;;15.70;60.10;;;;;;5113206;28;20173;-63
2024/03/06 00:16:08;;;;;;;2.42;2.22;;;15.80;60.20;;;;;;5112746;28;20216;-63
2024/03/06 00:18:34;;;;;;;2.70;2.50;;;15.80;60.20;;;;;;5112359;28;20644;-63
2024/03/06 00:21:00;;;;;;;2.60;2.40;;;15.70;60.20;;;;;;5112866;28;20252;-63
2024/03/06 00:23:26;;;;;;;2.72;2.53;;;15.80;60.30;;;;;;5112031;28;20177;-63
2024/03/06 00:25:51;;;;;;;2.90;2.60;;;15.80;60.20;;;;;;5112823;28;20654;-63
2024/03/06 00:28:17;;;;;;;2.92;2.63;;;15.80;60.20;;;;;;5112495;28;20252;-63
2024/03/06 00:30:45;;;;;;;3.20;2.75;;;15.70;60.20;;;;;;5112020;28;20260;-62
2024/03/06 00:33:17;;;;;;;2.60;2.33;;;15.70;60.20;;;;;;5112437;28;20177;-63
2024/03/06 00:35:43;;;;;;;3.63;2.60;;;15.70;60.20;;;;;;5112558;28;20679;-64
2024/03/06 00:38:08;;;;;;;2.70;2.50;;;15.70;60.20;;;;;;5111951;28;20279;-63
2024/03/06 00:40:34;;;;;;;2.75;2.55;;;15.70;60.30;;;;;;5112894;28;20226;-63
2024/03/06 00:42:59;;;;;;;3.20;2.40;;;15.70;60.30;;;;;;5112735;28;20168;-63
2024/03/06 00:45:25;;;;;;;2.45;2.25;;;15.70;60.20;;;;;;5111555;28;20173;-63
2024/03/06 00:47:51;;;;;;;2.60;2.40;;;15.70;60.20;;;;;;5112646;28;20256;-63
2024/03/06 00:50:18;;;;;;;2.90;2.67;;;15.70;60.30;;;;;;5112206;28;20176;-63
2024/03/06 00:52:44;;;;;;;2.42;2.22;;;15.70;60.30;;;;;;5111734;28;20215;-63
2024/03/06 00:55:09;;;;;;;2.65;2.45;;;15.70;60.30;;;;;;5112338;28;20177;-63
2024/03/06 00:57:35;;;;;;;3.03;2.72;;;15.70;60.30;;;;;;5112264;28;20634;-63
2024/03/06 01:00:10;;;;;;;2.90;2.70;;;15.60;60.20;;;;;;5111758;28;20257;-63
2024/03/06 01:02:37;;;;;;;2.90;2.70;;;15.60;60.30;;;;;;5112440;28;20183;-63
2024/03/06 01:05:03;;;;;;;2.95;2.50;;;15.60;60.20;;;;;;5112307;28;20204;-63
2024/03/06 01:07:30;;;;;;;3.10;2.80;;;15.60;60.30;;;;;;5111574;28;20191;-65
2024/03/06 01:09:57;;;;;;;2.78;2.53;;;15.60;60.30;;;;;;5112641;28;20197;-64
2024/03/06 01:12:23;;;;;;;3.28;2.97;;;15.60;60.30;;;;;;5112115;28;20173;-65
2024/03/06 01:14:48;;;;;;;2.90;2.70;;;15.60;60.30;;;;;;5111553;28;20587;-64
2024/03/06 01:17:14;;;;;;;2.70;2.45;;;15.60;60.30;;;;;;5111911;28;20234;-64
2024/03/06 01:19:39;;;;;;;3.22;2.65;;;15.60;60.30;;;;;;5112024;28;20177;-64
2024/03/06 01:22:05;;;;;;;2.70;2.50;;;15.60;60.30;;;;;;5111786;28;20172;-64
2024/03/06 01:24:30;;;;;;;2.55;2.35;;;15.60;60.40;;;;;;5112091;28;20216;-64
2024/03/06 01:26:56;;;;;;;2.60;2.40;;;15.60;60.30;;;;;;5111620;28;20283;-64
2024/03/06 01:29:22;;;;;;;3.05;2.85;;;15.60;60.30;;;;;;5112017;28;20196;-64
2024/03/06 01:31:47;;;;;;;2.72;2.53;;;15.60;60.30;;;;;;5112161;28;20219;-64
2024/03/06 01:34:13;;;;;;;2.78;2.58;;;15.50;60.30;;;;;;5111372;28;20180;-64
2024/03/06 01:36:38;;;;;;;3.40;3.03;;;15.50;60.30;;;;;;5112355;28;20668;-65
2024/03/06 01:39:04;;;;;;;2.85;2.63;;;15.50;60.30;;;;;;5112239;28;20256;-65
2024/03/06 01:41:30;;;;;;;2.85;2.65;;;15.50;60.30;;;;;;5111044;28;20248;-65
2024/03/06 01:43:55;;;;;;;2.80;2.60;;;15.60;60.30;;;;;;5112149;28;20226;-64
2024/03/06 01:46:21;;;;;;;2.65;2.45;;;15.50;60.30;;;;;;5111760;28;20165;-64
2024/03/06 01:48:46;;;;;;;3.03;2.63;;;15.50;60.30;;;;;;5111349;28;20260;-64
2024/03/06 01:51:14;;;;;;;2.88;2.45;;;15.50;60.30;;;;;;5110510;28;20753;-64
2024/03/06 01:53:40;;;;;;;2.90;2.70;;;15.50;60.30;;;;;;5110737;28;20688;-64
2024/03/06 01:56:06;;;;;;;2.95;2.75;;;15.50;60.30;;;;;;5111134;28;20213;-64
2024/03/06 01:58:35;;;;;;;2.80;2.53;;;15.50;60.30;;;;;;5111613;28;20274;-64
2024/03/06 02:01:00;;;;;;;3.15;2.85;;;15.50;60.30;;;;;;5110740;28;20222;-64
2024/03/06 02:03:26;;;;;;;3.03;2.83;;;15.50;60.30;;;;;;5112019;28;20252;-64
2024/03/06 02:05:51;;;;;;;3.20;2.90;;;15.50;60.30;;;;;;5115809;28;20636;-64
2024/03/06 02:08:17;;;;;;;3.05;2.85;;;15.40;60.20;;;;;;5114079;28;20521;-64
2024/03/06 02:10:44;;;;;;;3.40;3.10;;;15.40;60.20;;;;;;5114996;28;20180;-64
2024/03/06 02:13:10;;;;;;;2.58;2.38;;;15.40;60.20;;;;;;5114135;28;20184;-64
2024/03/06 02:15:35;;;;;;;2.78;2.50;;;15.40;60.20;;;;;;5115362;28;20574;-65
2024/03/06 02:18:05;;;;;;;3.20;2.90;;;15.40;60.20;;;;;;5114687;28;20173;-65
2024/03/06 02:20:30;;;;;;;2.65;2.45;;;15.40;60.20;;;;;;5115242;28;20170;-64
2024/03/06 02:22:56;;;;;;;2.80;2.60;;;15.40;60.20;;;;;;5115508;28;20203;-64
2024/03/06 02:25:21;;;;;;;2.83;2.63;;;15.40;60.20;;;;;;5114398;28;20544;-63
2024/03/06 02:27:50;;;;;;;2.92;2.72;;;15.40;60.20;;;;;;5114108;28;20695;-64
2024/03/06 02:30:20;;;;;;;2.50;2.30;;;15.40;60.20;;;;;;5114136;28;20632;-64
2024/03/06 02:32:46;;;;;;;2.75;2.55;;;15.40;60.20;;;;;;5115377;28;20169;-64
2024/03/06 02:35:11;;;;;;;2.95;2.75;;;15.40;60.20;;;;;;5115055;28;20174;-65
2024/03/06 02:37:37;;;;;;;3.47;2.88;;;15.40;60.20;;;;;;5114748;28;20179;-65
2024/03/06 02:40:07;;;;;;;2.70;2.50;;;15.30;60.10;;;;;;5115322;28;20173;-66
2024/03/06 02:42:32;;;;;;;2.58;2.38;;;15.30;60.10;;;;;;5114772;28;20180;-64
2024/03/06 02:45:01;;;;;;;2.88;2.67;;;15.40;60.20;;;;;;5114346;28;20589;-64
2024/03/06 02:47:26;;;;;;;2.88;2.67;;;15.30;61.00;;;;;;5114805;28;20172;-64
2024/03/06 02:49:52;;;;;;;2.80;2.60;;;15.30;60.10;;;;;;5115138;28;20517;-64
2024/03/06 02:52:17;;;;;;;2.90;2.67;;;15.30;60.10;;;;;;5113819;27;20628;-64
2024/03/06 02:54:43;;;;;;;2.78;2.55;;;15.30;60.10;;;;;;5114709;28;20184;-64
2024/03/06 02:57:08;;;;;;;3.03;2.78;;;15.30;60.10;;;;;;5114001;28;20205;-64
2024/03/06 02:59:34;;;;;;;2.85;2.53;;;15.30;60.10;;;;;;5113878;28;20309;-64
2024/03/06 03:02:00;;;;;;;2.85;2.65;;;15.30;60.10;;;;;;5114518;28;20216;-64
2024/03/06 03:04:26;;;;;;;2.80;2.60;;;15.30;60.10;;;;;;5113679;28;20189;-64
2024/03/06 03:06:54;;;;;;;2.72;2.53;;;15.30;60.10;;;;;;5113876;28;20189;-65
2024/03/06 03:09:20;;;;;;;2.55;2.38;;;15.30;60.10;;;;;;5114277;28;20169;-65
2024/03/06 03:11:46;;;;;;;3.03;2.72;;;15.20;60.10;;;;;;5114469;28;20250;-64
2024/03/06 03:14:11;;;;;;;2.70;2.50;;;15.30;60.10;;;;;;5113123;28;20683;-64
2024/03/06 03:16:37;;;;;;;2.90;2.70;;;15.30;60.10;;;;;;5114164;28;20727;-65
2024/03/06 03:19:03;;;;;;;3.42;3.15;;;15.20;60.00;;;;;;5114250;28;20173;-64
2024/03/06 03:21:28;;;;;;;2.75;2.55;;;15.20;60.00;;;;;;5113517;28;20264;-64
2024/03/06 03:23:54;;;;;;;2.78;2.58;;;15.20;60.00;;;;;;5114105;28;20256;-64
2024/03/06 03:26:19;;;;;;;3.17;2.88;;;15.20;60.00;;;;;;5113138;28;20176;-65
2024/03/06 03:28:45;;;;;;;2.70;2.38;;;15.20;60.00;;;;;;5114104;28;20185;-64
2024/03/06 03:31:10;;;;;;;2.70;2.50;;;15.20;60.00;;;;;;5113935;28;20173;-64
2024/03/06 03:33:39;;;;;;;2.58;2.38;;;15.20;60.00;;;;;;5113457;28;20172;-64
2024/03/06 03:36:07;;;;;;;2.75;2.35;;;15.20;60.00;;;;;;5113990;28;20215;-65
2024/03/06 03:38:35;;;;;;;2.50;2.30;;;15.20;60.00;;;;;;5113793;28;20176;-64
2024/03/06 03:41:03;;;;;;;2.70;2.50;;;15.20;60.00;;;;;;5113076;28;20181;-64
2024/03/06 03:43:29;;;;;;;2.70;2.50;;;15.20;60.00;;;;;;5113479;28;20944;-64
2024/03/06 03:45:55;;;;;;;2.50;2.30;;;15.20;59.90;;;;;;5113732;27;20184;-64
2024/03/06 03:48:20;;;;;;;3.20;3.00;;;15.10;59.90;;;;;;5112728;28;20173;-64
2024/03/06 03:50:46;;;;;;;2.55;2.35;;;15.10;59.90;;;;;;5113765;28;20177;-64
2024/03/06 03:53:11;;;;;;;2.65;2.45;;;15.10;59.90;;;;;;5113371;28;20169;-64
2024/03/06 03:55:37;;;;;;;2.70;2.50;;;15.10;59.90;;;;;;5112673;28;20284;-64
2024/03/06 03:58:02;;;;;;;3.33;3.03;;;15.10;59.80;;;;;;5113407;28;20319;-64
2024/03/06 04:00:28;;;;;;;2.63;2.42;;;15.10;59.80;;;;;;5113311;28;20975;-64
2024/03/06 04:02:53;;;;;;;2.60;2.40;;;15.10;59.80;;;;;;5112815;28;20180;-64
2024/03/06 04:05:19;;;;;;;2.50;2.30;;;15.10;59.90;;;;;;5113276;28;20168;-64
2024/03/06 04:07:45;;;;;;;2.95;2.75;;;15.10;59.80;;;;;;5113363;28;20200;-64
2024/03/06 04:10:10;;;;;;;2.67;2.47;;;15.10;59.80;;;;;;5112212;28;20204;-65
2024/03/06 04:12:37;;;;;;;2.88;2.67;;;15.10;59.80;;;;;;5113228;28;20202;-64
2024/03/06 04:15:03;;;;;;;3.15;2.95;;;15.10;59.80;;;;;;5113388;28;20200;-64
2024/03/06 04:17:29;;;;;;;2.90;2.70;;;15.10;59.90;;;;;;5112160;28;20219;-64
2024/03/06 04:19:57;;;;;;;2.70;2.50;;;15.10;59.80;;;;;;5113180;28;20632;-64
2024/03/06 04:22:23;;;;;;;3.15;2.90;;;15.00;59.70;;;;;;5112776;28;20176;-64
2024/03/06 04:24:48;;;;;;;2.60;2.40;;;15.00;59.80;;;;;;5112338;28;20173;-63
2024/03/06 04:27:15;;;;;;;2.85;2.65;;;15.00;59.70;;;;;;5112024;28;20658;-64
2024/03/06 04:29:41;;;;;;;2.92;2.63;;;15.00;59.70;;;;;;5112183;28;20181;-64
2024/03/06 04:32:06;;;;;;;2.80;2.60;;;15.00;59.70;;;;;;5113036;28;20174;-64
2024/03/06 04:34:32;;;;;;;2.63;2.42;;;15.00;59.70;;;;;;5112747;28;20176;-65
2024/03/06 04:36:58;;;;;;;2.95;2.67;;;15.00;59.80;;;;;;5112054;28;20565;-64
2024/03/06 04:39:23;;;;;;;2.88;2.67;;;15.00;59.70;;;;;;5112428;28;20200;-64
2024/03/06 04:41:49;;;;;;;3.10;2.80;;;15.00;59.70;;;;;;5112608;28;20654;-63
2024/03/06 04:44:14;;;;;;;2.80;2.60;;;15.00;59.70;;;;;;5111824;28;20169;-63
2024/03/06 04:46:40;;;;;;;2.55;2.35;;;15.00;59.70;;;;;;5112812;28;20195;-63
2024/03/06 04:49:05;;;;;;;3.10;2.90;;;15.00;59.70;;;;;;5112709;28;20272;-63
2024/03/06 04:51:31;;;;;;;2.90;2.70;;;15.00;59.70;;;;;;5111694;28;20173;-63
2024/03/06 04:53:57;;;;;;;3.17;2.88;;;14.90;59.70;;;;;;5112605;28;20181;-63
2024/03/06 04:56:22;;;;;;;3.15;2.88;;;14.90;59.60;;;;;;5112347;28;20663;-63
2024/03/06 04:58:48;;;;;;;3.45;3.17;;;14.90;59.60;;;;;;5111712;28;20227;-63
2024/03/06 05:01:14;;;;;;;2.92;2.72;;;15.00;59.60;;;;;;5112160;28;20287;-63
2024/03/06 05:03:40;;;;;;;3.80;2.70;;;14.90;59.70;;;;;;5112434;28;20265;-63
2024/03/06 05:06:06;;;;;;;3.47;2.95;;;14.90;59.60;;;;;;5111818;28;20180;-64
2024/03/06 05:08:31;;;;;;;3.22;3.03;;;14.90;59.60;;;;;;5112080;28;20173;-63
2024/03/06 05:10:57;;;;;;;2.80;2.60;;;14.90;59.60;;;;;;5112366;28;20184;-63
2024/03/06 05:13:23;;;;;;;2.80;2.60;;;14.90;59.70;;;;;;5111544;28;20535;-63
2024/03/06 05:15:48;;;;;;;2.60;2.40;;;14.90;59.60;;;;;;5112364;28;20215;-64
2024/03/06 05:18:14;;;;;;;2.90;2.70;;;14.90;59.60;;;;;;5112101;28;20259;-64
2024/03/06 05:20:40;;;;;;;2.88;2.67;;;14.90;59.60;;;;;;5111640;28;20592;-63
2024/03/06 05:23:06;;;;;;;2.97;2.78;;;14.90;59.60;;;;;;5112170;28;20165;-63
2024/03/06 05:25:31;;;;;;;3.20;2.90;;;14.90;59.60;;;;;;5111926;28;20168;-63
2024/03/06 05:27:57;;;;;;;2.40;2.20;;;14.90;59.60;;;;;;5111563;28;20264;-63
2024/03/06 05:30:22;;;;;;;2.50;2.30;;;14.90;59.60;;;;;;5112012;28;20260;-63
2024/03/06 05:32:48;;;;;;;3.03;2.70;;;14.90;59.60;;;;;;5112307;28;20166;-63
2024/03/06 05:35:13;;;;;;;2.70;2.50;;;14.90;59.60;;;;;;5111194;28;20173;-63
2024/03/06 05:37:39;;;;;;;3.00;2.80;;;14.90;59.60;;;;;;5113725;28;20587;-63
2024/03/06 05:40:05;;;;;;;3.00;2.70;;;14.80;59.50;;;;;;5115239;28;20759;-63
2024/03/06 05:42:31;;;;;;;2.70;2.50;;;14.90;59.60;;;;;;5115609;28;20568;-63
2024/03/06 05:45:00;;;;;;;2.70;2.50;;;14.80;59.50;;;;;;5115862;28;20180;-63
2024/03/06 05:47:26;;;;;;;2.90;2.70;;;14.80;59.50;;;;;;5115105;28;20185;-62
2024/03/06 05:49:52;;;;;;;2.97;2.70;;;14.80;59.50;;;;;;5115940;28;20624;-62
2024/03/06 05:52:17;;;;;;;3.35;2.97;;;14.80;59.50;;;;;;5115485;28;20535;-63
2024/03/06 05:54:46;;;;;;;3.00;2.80;;;14.90;59.40;;;;;;5115295;28;20181;-62
2024/03/06 05:57:11;;;;;;;2.90;2.17;;;14.90;59.20;;;;;;5115332;28;20212;-63
2024/03/06 05:59:39;;;;;;;2.97;2.78;;;15.00;59.00;;;;;;5115875;28;20181;-62
2024/03/06 06:02:07;;;;;;;3.28;2.97;;;15.10;58.80;;;;;;5114978;28;20173;-62
2024/03/06 06:04:33;;;;;;;2.63;2.42;;;15.20;58.80;;;;;;5115547;28;20173;-63
2024/03/06 06:07:03;;;;;;;2.53;2.33;;;15.30;58.80;;;;;;5115628;28;20674;-64
2024/03/06 06:09:28;;;;;;;3.13;2.80;;;15.40;58.80;;;;;;5114791;28;20169;-64
2024/03/06 06:11:54;;;;;;;3.38;2.58;;;15.50;58.70;;;;;;5115498;28;20200;-63
2024/03/06 06:14:22;;;;;;;2.90;2.70;;;15.50;58.60;;;;;;5115422;28;20238;-63
2024/03/06 06:16:48;;;;;;;2.67;2.47;;;15.70;58.40;;;;;;5114981;28;20295;-64
2024/03/06 06:19:13;;;;;;;2.45;2.25;;;15.70;58.20;;;;;;5115147;28;20204;-64
2024/03/06 06:21:39;;;;;;;2.72;2.53;;;15.80;58.10;;;;;;5115324;28;20264;-64
2024/03/06 06:24:05;;;;;;;2.55;2.35;;;15.90;58.00;;;;;;5114395;28;20200;-64
2024/03/06 06:26:31;;;;;;;2.60;2.40;;;15.90;57.90;;;;;;5115191;27;20219;-64
2024/03/06 06:28:57;;;;;;;2.05;1.95;;;16.00;57.80;;;;;;5115333;28;20177;-64
2024/03/06 06:31:23;;;;;;;2.65;2.40;;;16.00;57.70;;;;;;5114338;28;20267;-64
2024/03/06 06:33:52;;;;;;;2.65;2.45;;;16.10;57.70;;;;;;5115077;28;20577;-64
2024/03/06 06:36:17;;;;;;;3.75;2.80;;;16.10;57.60;;;;;;5114074;28;20236;-65
2024/03/06 06:38:43;;;;;;;2.42;2.22;;;16.10;57.50;;;;;;5115311;28;20197;-64
2024/03/06 06:41:10;;;;;;;2.33;2.20;;;16.20;57.50;;;;;;5114870;28;20256;-64
2024/03/06 06:43:35;;;;;;;2.38;2.17;;;16.20;57.40;;;;;;5114364;28;20173;-64
2024/03/06 06:46:01;;;;;;;2.25;2.05;;;16.20;57.40;;;;;;5114985;28;20249;-64
2024/03/06 06:48:27;;;;;;;2.40;2.20;;;16.20;57.40;;;;;;5114188;28;20169;-64
2024/03/06 06:50:52;;;;;;;2.40;2.20;;;16.30;57.50;;;;;;5113759;28;20204;-63
2024/03/06 06:53:18;;;;;;;3.35;2.63;;;16.40;57.40;;;;;;5114708;28;20165;-64
2024/03/06 06:55:43;;;;;;;2.63;2.28;;;16.50;57.30;;;;;;5114641;28;20705;-64
2024/03/06 06:58:09;;;;;;;2.53;2.33;;;16.70;57.20;;;;;;5113559;28;20229;-64
2024/03/06 07:00:37;;;;;;;2.47;2.28;;;16.90;56.90;;;;;;5114746;28;20177;-64
2024/03/06 07:03:03;;;;;;;2.13;2.00;;;17.00;56.60;;;;;;5114646;28;20181;-64
2024/03/06 07:05:29;;;;;;;2.78;2.47;;;17.40;56.10;;;;;;5113523;28;20655;-64
2024/03/06 07:07:55;;;;;;;2.53;2.33;;;17.50;55.80;;;;;;5114476;28;20260;-64
2024/03/06 07:10:21;;;;;;;2.08;1.92;;;17.70;55.60;;;;;;5114342;28;20177;-64
2024/03/06 07:12:46;;;;;;;2.70;2.50;;;17.70;55.40;;;;;;5113860;28;20561;-64
2024/03/06 07:15:12;;;;;;;2.40;2.20;;;17.70;55.20;;;;;;5114073;28;20636;-65
2024/03/06 07:17:38;;;;;;;2.25;2.05;;;17.70;55.30;;;;;;5114268;28;20212;-64
2024/03/06 07:20:06;;;;;;;2.92;2.70;;;17.70;55.40;;;;;;5113501;28;20173;-62
2024/03/06 07:22:31;;;;;;;2.65;2.45;;;17.70;55.50;;;;;;5114179;28;20185;-64
2024/03/06 07:24:57;;;;;;;2.40;2.20;;;17.60;55.50;;;;;;5114443;28;20173;-64
2024/03/06 07:27:22;;;;;;;2.58;2.38;;;17.60;55.70;;;;;;5113231;28;20708;-64
2024/03/06 07:29:48;;;;;;;2.40;2.20;;;17.60;55.70;;;;;;5114146;28;20627;-64
2024/03/06 07:32:13;;;;;;;2.80;2.60;;;17.50;55.70;;;;;;5113666;28;20631;-64
2024/03/06 07:34:39;;;;;;;2.67;2.47;;;17.50;55.80;;;;;;5113236;28;20181;-65
2024/03/06 07:37:04;;;;;;;2.70;2.50;;;17.50;55.90;;;;;;5114109;28;20213;-65
2024/03/06 07:39:31;;;;;;;2.47;2.28;;;17.50;56.00;;;;;;5113088;28;20248;-65
2024/03/06 07:41:56;;;;;;;2.97;2.78;;;17.50;56.00;;;;;;5113811;28;20624;-65
2024/03/06 07:44:22;;;;;;;2.45;2.25;;;17.40;56.10;;;;;;5113561;28;20256;-65
2024/03/06 07:46:48;;;;;;;2.30;2.10;;;17.40;56.20;;;;;;5112883;28;20165;-64
2024/03/06 07:49:14;;;;;;;2.17;2.00;;;17.40;56.20;;;;;;5113377;28;20173;-64
2024/03/06 07:51:40;;;;;;;2.20;2.00;;;17.50;56.30;;;;;;5113824;27;20180;-61
2024/03/06 07:54:06;;;;;;;2.42;2.22;;;17.40;56.20;;;;;;5113039;28;20233;-65
2024/03/06 07:56:31;;;;;;;2.90;2.05;;;17.40;56.40;;;;;;5113225;28;20205;-65
2024/03/06 07:58:57;;;;;;;2.42;2.22;;;17.40;56.20;;;;;;5113299;28;20229;-64
2024/03/06 08:01:23;;;;;;;2.50;2.30;;;17.40;56.30;;;;;;5111395;28;20264;-64
2024/03/06 08:03:48;;;;;;;2.72;2.53;;;17.40;56.30;;;;;;5113331;28;20260;-65
2024/03/06 08:06:16;;;;;;;2.28;2.08;;;17.40;56.20;;;;;;5113182;28;20181;-65
2024/03/06 08:08:44;;;;;;;2.47;2.28;;;17.50;56.30;;;;;;5112724;28;20256;-65
2024/03/06 08:11:10;;;;;;;2.50;2.25;;;17.50;56.30;;;;;;5113027;28;20169;-64
2024/03/06 08:13:36;;;;;;;2.30;2.10;;;17.50;56.30;;;;;;5113238;28;20203;-64
2024/03/06 08:16:02;;;;;;;2.22;2.03;;;17.50;56.50;;;;;;5112306;28;20555;-64
2024/03/06 08:18:28;;;;;;;2.38;2.17;;;17.50;56.50;;;;;;5112845;28;20610;-64
2024/03/06 08:20:53;;;;;;;3.30;3.00;;;17.40;56.50;;;;;;5112880;28;20185;-62
2024/03/06 08:23:19;;;;;;;2.35;2.15;;;17.40;56.50;;;;;;5111918;28;20192;-64
2024/03/06 08:25:45;;;;;;;2.47;2.28;;;17.40;56.50;;;;;;5113063;28;20639;-63
2024/03/06 08:28:10;;;;;;;2.78;2.58;;;17.40;56.60;;;;;;5112765;28;20651;-64
2024/03/06 08:30:39;;;;;;;2.45;2.25;;;17.50;56.60;;;;;;5112140;28;20169;-62
2024/03/06 08:33:05;;;;;;;2.67;2.47;;;17.50;56.60;;;;;;5113003;28;20181;-63
2024/03/06 08:35:31;;;;;;;2.53;2.33;;;17.50;56.50;;;;;;5112576;28;20200;-63
2024/03/06 08:37:57;;;;;;;2.63;2.42;;;17.50;56.50;;;;;;5112102;28;20192;-64
2024/03/06 08:40:23;;;;;;;2.65;2.45;;;17.40;56.60;;;;;;5112540;28;20165;-64
2024/03/06 08:42:48;;;;;;;3.00;2.70;;;17.40;56.70;;;;;;5112015;28;20177;-63
2024/03/06 08:45:14;;;;;;;2.80;2.60;;;17.30;56.60;;;;;;5112334;28;20177;-63
2024/03/06 08:47:40;;;;;;;2.40;2.20;;;17.20;56.70;;;;;;5112666;28;20184;-63
2024/03/06 08:50:07;;;;;;;2.47;2.28;;;17.20;56.90;;;;;;5111976;28;20218;-62
2024/03/06 08:52:34;;;;;;;3.35;2.90;;;17.20;56.90;;;;;;5112633;28;20173;-63
2024/03/06 08:55:00;;;;;;;2.60;2.30;;;17.20;57.00;;;;;;5112379;28;20620;-63
2024/03/06 08:57:28;;;;;;;3.20;2.90;;;17.20;57.10;;;;;;5111270;28;20231;-63
2024/03/06 08:59:54;;;;;;;2.72;2.53;;;17.20;57.10;;;;;;5112431;28;20202;-63
2024/03/06 09:02:19;;;;;;;2.65;2.45;;;17.20;57.10;;;;;;5112374;28;20213;-63
2024/03/06 09:04:45;;;;;;;2.75;2.55;;;17.10;57.10;;;;;;5111816;28;20179;-63
2024/03/06 09:07:11;;;;;;;2.78;2.53;;;17.10;57.20;;;;;;5112161;28;20179;-64
2024/03/06 09:09:37;;;;;;;2.90;2.70;;;17.00;57.30;;;;;;5112460;28;20165;-64
2024/03/06 09:12:06;;;;;;;2.90;2.70;;;17.00;57.30;;;;;;5112399;28;20188;-63
2024/03/06 09:14:33;;;;;;;3.10;2.90;;;16.90;57.40;;;;;;5116266;28;20598;-63
2024/03/06 09:16:58;;;;;;;3.28;2.97;;;16.90;57.50;;;;;;5116510;28;20212;-63
2024/03/06 09:19:24;;;;;;;3.60;2.95;;;16.90;57.50;;;;;;5115755;28;20176;-62
2024/03/06 09:21:53;;;;;;;2.85;2.65;;;17.00;57.50;;;;;;5116677;28;20177;-63
2024/03/06 09:24:19;;;;;;;3.05;2.75;;;17.00;57.50;;;;;;5116165;28;20173;-63
2024/03/06 09:26:45;;;;;;;3.13;2.83;;;17.00;57.50;;;;;;5115808;28;20173;-62
2024/03/06 09:29:16;;;;;;;3.17;2.90;;;16.90;57.50;;;;;;5115954;28;20599;-62
2024/03/06 09:31:42;;;;;;;3.17;2.97;;;16.90;57.50;;;;;;5116426;28;20177;-63
2024/03/06 09:34:11;;;;;;;2.80;2.60;;;16.90;57.50;;;;;;5115394;28;20222;-63
2024/03/06 09:36:37;;;;;;;3.42;3.13;;;16.80;57.50;;;;;;5116040;28;20269;-64
2024/03/06 09:39:04;;;;;;;3.60;3.22;;;16.80;57.60;;;;;;5115788;28;20173;-63
2024/03/06 09:41:30;;;;;;;3.13;2.83;;;16.80;57.70;;;;;;5115820;28;20176;-63
2024/03/06 09:43:56;;;;;;;3.22;2.92;;;16.80;57.80;;;;;;5116021;28;20172;-63
2024/03/06 09:46:21;;;;;;;3.08;2.78;;;16.80;57.90;;;;;;5114952;28;20177;-63
2024/03/06 09:48:47;;;;;;;4.25;3.05;;;16.80;57.80;;;;;;5114873;28;20252;-63
2024/03/06 09:51:13;;;;;;;3.30;3.00;;;16.80;57.70;;;;;;5115733;28;20173;-63
2024/03/06 09:53:39;;;;;;;4.07;3.67;;;16.90;57.70;;;;;;5115354;28;20310;-62
2024/03/06 09:56:05;;;;;;;3.65;3.35;;;16.90;57.70;;;;;;5114256;28;20747;-63
2024/03/06 09:58:31;;;;;;;3.30;3.00;;;16.80;57.70;;;;;;5114204;28;20672;-62
2024/03/06 10:01:00;;;;;;;3.60;3.30;;;16.80;57.80;;;;;;5115332;28;20250;-62
2024/03/06 10:03:26;;;;;;;3.55;3.25;;;16.80;57.90;;;;;;5114218;28;20174;-63
2024/03/06 10:05:52;;;;;;;4.30;3.90;;;16.70;57.90;;;;;;5115432;28;20268;-63
2024/03/06 10:08:20;;;;;;;3.63;3.33;;;16.70;58.00;;;;;;5114514;28;20240;-63
2024/03/06 10:10:48;;;;;;;4.38;3.97;;;16.70;58.00;;;;;;5115394;28;20208;-63
2024/03/06 10:13:22;;;;;;;4.40;3.85;;;16.70;58.10;;;;;;5113899;28;20856;-63
2024/03/06 10:16:01;;;;;;;4.15;3.75;;;16.70;58.10;;;;;;5114649;28;20224;-63
2024/03/06 10:18:30;;;;;;;4.18;3.78;;;16.70;58.00;;;;;;5114990;28;20642;-63
2024/03/06 10:20:56;;;;;;;4.47;3.90;;;16.70;58.00;;;;;;5115275;28;20181;-63
2024/03/06 10:23:21;;;;;;;4.13;3.72;;;16.80;58.00;;;;;;5113451;27;20655;-63
2024/03/06 10:25:50;;;;;;;4.85;4.38;;;16.70;58.00;;;;;;5114829;28;20169;-63
2024/03/06 10:28:17;;;;;;;4.15;3.75;;;16.80;58.00;;;;;;5114781;28;20256;-63
2024/03/06 10:30:43;;;;;;;4.22;3.83;;;16.70;58.10;;;;;;5114866;28;20177;-62
2024/03/06 10:33:08;;;;;;;4.63;4.05;;;16.70;58.10;;;;;;5114879;28;20264;-63
2024/03/06 10:35:36;;;;;;;4.30;3.90;;;16.70;58.20;;;;;;5114230;28;20234;-63
2024/03/06 10:38:03;;;;;;;5.25;4.45;;;16.70;58.20;;;;;;5115198;28;20271;-63
2024/03/06 10:40:31;;;;;;;5.03;4.20;;;16.60;58.20;;;;;;5114585;28;20586;-63
2024/03/06 10:42:58;;;;;;;5.90;4.90;;;16.70;58.20;;;;;;5114183;28;20174;-63
2024/03/06 10:45:25;;;;;;;5.88;4.47;;;16.70;58.20;;;;;;5113246;28;20599;-63
2024/03/06 10:47:51;;;;;;;5.20;4.70;;;16.80;58.20;;;;;;5113722;28;20218;-62
2024/03/06 10:50:16;;;;;;;4.75;4.35;;;16.80;58.20;;;;;;5112595;28;20196;-62
2024/03/06 10:52:42;;;;;;;6.25;5.65;;;16.70;58.10;;;;;;5113455;28;20185;-62
2024/03/06 10:55:09;;;;;;;5.07;4.38;;;16.70;58.10;;;;;;5114389;28;20173;-63
2024/03/06 10:57:36;;;;;;;5.25;4.75;;;16.70;58.20;;;;;;5113379;28;20240;-63
2024/03/06 11:00:01;;;;;;;5.70;5.05;;;16.70;58.20;;;;;;5114570;28;20252;-62
2024/03/06 11:02:27;;;;;;;5.20;4.70;;;16.70;58.30;;;;;;5113064;28;20287;-63
2024/03/06 11:04:56;;;;;;;5.25;4.75;;;16.70;58.40;;;;;;5112502;28;20633;-63
2024/03/06 11:07:21;;;;;;;5.15;4.50;;;16.70;58.30;;;;;;5113130;28;20211;-63
2024/03/06 11:09:49;;;;;;;6.57;5.88;;;16.70;58.40;;;;;;5114578;28;20197;-64
2024/03/06 11:12:38;;;;;;;5.63;5.03;;;16.70;58.40;;;;;;5113583;28;20173;-63
2024/03/06 11:15:13;;;;;;;5.47;4.97;;;16.70;58.30;;;;;;5114381;28;20208;-63
2024/03/06 11:17:39;;;;;;;6.13;5.32;;;16.70;58.30;;;;;;5113881;28;20200;-63
2024/03/06 11:20:09;;;;;;;5.82;5.20;;;16.70;58.30;;;;;;5113958;28;20470;-63
2024/03/06 11:23:02;;;;;;;6.07;5.15;;;16.70;58.20;;;;;;5114332;28;20181;-63
2024/03/06 11:25:48;;;;;;;5.70;5.20;;;16.70;58.30;;;;;;5113247;28;20942;-63
2024/03/06 11:28:18;;;;;;;5.68;5.10;;;16.70;58.40;;;;;;5114027;28;20169;-63
2024/03/06 11:31:13;;;;;;;5.82;4.97;;;16.70;58.40;;;;;;5114184;28;20173;-62
2024/03/06 11:33:42;;;;;;;5.72;5.22;;;16.70;58.40;;;;;;5112283;28;20208;-63
2024/03/06 11:36:17;;;;;;;5.22;4.72;;;16.70;58.40;;;;;;5113280;28;20205;-63
2024/03/06 11:38:59;;;;;;;5.35;4.78;;;16.70;58.40;;;;;;5113127;28;20564;-63
2024/03/06 11:41:29;;;;;;;6.32;5.00;;;16.70;58.40;;;;;;5113540;28;20181;-63
2024/03/06 11:43:55;;;;;;;5.95;5.35;;;16.70;58.50;;;;;;5113821;28;20209;-63
2024/03/06 11:46:22;;;;;;;5.68;5.07;;;16.70;58.40;;;;;;5112736;28;20176;-63
2024/03/06 11:48:54;;;;;;;5.93;5.32;;;16.70;58.40;;;;;;5113595;28;20173;-62
2024/03/06 11:51:20;;;;;;;5.60;5.10;;;16.70;58.50;;;;;;5113530;28;20179;-63
2024/03/06 11:53:48;;;;;;;5.75;5.20;;;16.70;58.40;;;;;;5113341;28;20181;-63
2024/03/06 11:56:14;;;;;;;5.57;5.00;;;16.80;58.40;;;;;;5111902;28;20683;-63
2024/03/06 11:58:39;;;;;;;5.50;5.00;;;16.80;58.40;;;;;;5113254;28;20258;-62
2024/03/06 12:01:06;;;;;;;6.45;5.60;;;16.70;58.40;;;;;;5111475;28;20177;-63
2024/03/06 12:03:31;;;;;;;6.38;5.10;;;16.70;58.40;;;;;;5111974;28;20280;-63
2024/03/06 12:05:57;;;;;;;5.93;5.32;;;16.80;58.40;;;;;;5113531;28;20248;-64
2024/03/06 12:08:23;;;;;;;6.32;5.72;;;16.80;58.50;;;;;;5112293;28;20176;-64
2024/03/06 12:10:55;;;;;;;6.13;5.53;;;16.80;58.30;;;;;;5113376;28;20173;-63
2024/03/06 12:13:20;;;;;;;5.53;4.97;;;16.90;58.10;;;;;;5112893;28;20700;-63
2024/03/06 12:15:47;;;;;;;6.47;5.88;;;16.90;58.80;;;;;;5111044;28;20185;-63
2024/03/06 12:18:12;;;;;;;5.88;5.28;;;16.90;58.20;;;;;;5113096;28;20176;-64
2024/03/06 12:20:45;;;;;;;6.13;5.53;;;17.00;58.20;;;;;;5111964;28;20213;-64
2024/03/06 12:23:18;;;;;;;6.05;5.55;;;16.90;58.40;;;;;;5112244;27;20172;-64
2024/03/06 12:25:44;;;;;;;6.00;5.28;;;16.90;58.40;;;;;;5113149;28;20169;-64
2024/03/06 12:28:09;;;;;;;7.22;5.95;;;16.90;58.40;;;;;;5110615;28;20183;-63
2024/03/06 12:30:42;;;;;;;5.65;5.13;;;17.00;58.40;;;;;;5113168;28;20176;-63
2024/03/06 12:33:08;;;;;;;5.90;5.32;;;16.90;58.30;;;;;;5112816;28;20180;-63
2024/03/06 12:35:33;;;;;;;6.30;5.70;;;16.90;58.40;;;;;;5112241;28;20196;-64
2024/03/06 12:37:59;;;;;;;5.90;5.40;;;17.00;58.40;;;;;;5112797;28;20715;-64
2024/03/06 12:40:24;;;;;;;5.47;4.88;;;17.00;58.40;;;;;;5111189;28;20557;-64
2024/03/06 12:42:52;;;;;;;6.05;5.55;;;17.00;58.30;;;;;;5112090;28;20183;-64
2024/03/06 12:45:17;;;;;;;5.30;4.80;;;17.00;58.40;;;;;;5112648;28;20176;-63